Time;durP1;ratioP1;P1;durP2;ratioP2;P2;SDS_P1;SDS_P2;PMS_P1;PMS_P2;Temp;Humidity;BMP_temperature;BMP_pressure;BME280_temperature;BME280_humidity;BME280_pressure;Samples;Min_cycle;Max_cycle;Signal;HPM_P1;HPM_P2
2022/08/12 00:44:53;;;;;;;3.47;2.78;;;;;;;;;;5020688;28;20062;-86
2022/08/12 00:47:50;;;;;;;3.35;2.67;;;;;;;;;;5004196;28;20060;-86
2022/08/12 00:50:19;;;;;;;2.85;2.60;;;;;;;;;;5014825;28;20060;-86
2022/08/12 00:53:32;;;;;;;2.80;2.60;;;;;;;;;;5039159;28;20472;-86
2022/08/12 00:56:51;;;;;;;2.75;2.55;;;;;;;;;;5034632;28;20046;-86
2022/08/12 00:59:34;;;;;;;5.22;2.80;;;;;;;;;;5035771;28;20050;-88
2022/08/12 01:02:03;;;;;;;2.78;2.28;;;;;;;;;;5028181;28;20088;-85
2022/08/12 01:11:38;;;;;;;3.53;2.78;;;;;;;;;;5017586;28;20440;-85
2022/08/12 01:14:35;;;;;;;3.60;2.65;;;;;;;;;;5038824;28;20046;-86
2022/08/12 01:17:15;;;;;;;3.20;2.90;;;;;;;;;;5037186;28;20046;-87
2022/08/12 01:19:55;;;;;;;3.97;2.45;;;;;;;;;;5037634;28;20073;-87
2022/08/12 01:23:01;;;;;;;3.97;2.75;;;;;;;;;;5034615;28;20045;-87
2022/08/12 01:25:51;;;;;;;5.63;3.08;;;;;;;;;;5018394;28;20408;-88
2022/08/12 01:28:47;;;;;;;3.58;3.00;;;;;;;;;;5053481;28;20053;-87
2022/08/12 01:31:18;;;;;;;2.67;2.55;;;;;;;;;;5018893;28;20045;-87
2022/08/12 01:34:18;;;;;;;3.53;2.80;;;;;;;;;;5054964;28;20049;-87
2022/08/12 01:37:09;;;;;;;2.55;2.38;;;;;;;;;;5036192;28;20045;-87
2022/08/12 01:39:45;;;;;;;2.95;2.75;;;;;;;;;;5032044;28;20041;-87
2022/08/12 01:43:18;;;;;;;3.85;2.80;;;;;;;;;;4935265;29;20044;-87
2022/08/12 01:45:58;;;;;;;3.10;2.90;;;;;;;;;;4957936;29;20054;-87
2022/08/12 01:52:20;;;;;;;3.13;2.83;;;;;;;;;;4988093;28;20130;-86
2022/08/12 01:55:15;;;;;;;4.70;3.25;;;;;;;;;;4988821;28;20460;-86
2022/08/12 01:58:23;;;;;;;3.83;3.20;;;;;;;;;;4977059;28;20051;-86
2022/08/12 02:13:52;;;;;;;2.95;2.78;;;;;;;;;;4993300;28;20074;-87
2022/08/12 02:16:24;;;;;;;3.38;2.80;;;;;;;;;;4992598;28;20051;-88
2022/08/12 02:19:05;;;;;;;3.33;2.90;;;;;;;;;;4972333;28;20085;-86
2022/08/12 02:21:52;;;;;;;3.97;3.10;;;;;;;;;;5025376;28;20053;-87
2022/08/12 02:24:20;;;;;;;4.20;3.10;;;;;;;;;;5040874;28;20099;-87
2022/08/12 02:26:50;;;;;;;5.60;3.22;;;;;;;;;;5022197;28;20061;-87
2022/08/12 02:29:19;;;;;;;4.38;3.25;;;;;;;;;;5022980;28;20099;-87
2022/08/12 02:31:46;;;;;;;4.95;3.55;;;;;;;;;;5040439;28;20080;-87
2022/08/12 02:34:15;;;;;;;3.78;3.17;;;;;;;;;;5023249;28;20076;-87
2022/08/12 02:36:43;;;;;;;4.40;3.38;;;;;;;;;;5023555;28;20099;-87
2022/08/12 02:39:14;;;;;;;6.03;3.70;;;;;;;;;;5024020;28;20077;-88
2022/08/12 02:41:42;;;;;;;4.50;3.42;;;;;;;;;;5023491;28;20517;-86
2022/08/12 02:44:10;;;;;;;5.35;3.42;;;;;;;;;;5040960;28;20053;-87
2022/08/12 02:46:38;;;;;;;4.40;3.40;;;;;;;;;;5023649;28;20487;-87
2022/08/12 02:49:10;;;;;;;3.42;3.20;;;;;;;;;;5041808;28;20046;-88
2022/08/12 02:51:39;;;;;;;3.78;3.45;;;;;;;;;;5024601;28;20049;-87
2022/08/12 02:54:07;;;;;;;3.53;3.22;;;;;;;;;;5024633;28;20103;-88
2022/08/12 02:56:39;;;;;;;4.55;3.20;;;;;;;;;;5024925;28;20049;-88
2022/08/12 02:59:09;;;;;;;3.55;3.25;;;;;;;;;;5025426;28;20099;-87
2022/08/12 03:01:37;;;;;;;4.88;3.25;;;;;;;;;;5025583;28;20095;-87
2022/08/12 03:04:18;;;;;;;4.93;3.05;;;;;;;;;;5027661;28;20057;-87
2022/08/12 03:07:00;;;;;;;4.53;3.13;;;;;;;;;;5024076;28;20049;-87
2022/08/12 03:09:29;;;;;;;5.55;2.90;;;;;;;;;;5041413;28;20057;-86
2022/08/12 03:12:12;;;;;;;3.58;3.25;;;;;;;;;;5025521;28;20050;-87
2022/08/12 03:14:46;;;;;;;3.30;3.10;;;;;;;;;;5025297;28;20056;-88
2022/08/12 03:17:17;;;;;;;4.10;3.30;;;;;;;;;;5041580;28;20498;-87
2022/08/12 03:19:44;;;;;;;5.10;3.25;;;;;;;;;;5023720;28;20046;-88
2022/08/12 03:22:33;;;;;;;4.43;3.50;;;;;;;;;;5026771;28;20139;-87
2022/08/12 03:25:02;;;;;;;3.92;3.35;;;;;;;;;;5041376;28;20049;-86
2022/08/12 03:27:30;;;;;;;3.42;3.15;;;;;;;;;;5023569;28;20057;-86
2022/08/12 03:29:58;;;;;;;5.82;3.80;;;;;;;;;;5023551;28;20045;-88
2022/08/12 03:32:25;;;;;;;3.55;3.25;;;;;;;;;;5023048;28;20510;-87
2022/08/12 03:35:13;;;;;;;3.70;3.17;;;;;;;;;;5024366;28;20056;-88
2022/08/12 03:38:04;;;;;;;3.45;3.17;;;;;;;;;;5016918;28;20068;-86
2022/08/12 04:00:27;;;;;;;3.60;3.28;;;;;;;;;;5045693;28;20053;-88
2022/08/12 04:03:01;;;;;;;7.50;3.78;;;;;;;;;;5029736;28;20059;-87
2022/08/12 04:05:29;;;;;;;4.43;4.07;;;;;;;;;;5029084;28;20057;-87
2022/08/12 04:08:17;;;;;;;4.13;3.70;;;;;;;;;;5032162;28;20072;-87
2022/08/12 04:13:34;;;;;;;4.45;4.05;;;;;;;;;;5047233;28;20124;-87
2022/08/12 04:16:05;;;;;;;4.25;3.72;;;;;;;;;;5028911;28;20053;-87
2022/08/12 04:18:34;;;;;;;4.03;3.72;;;;;;;;;;5033328;28;20039;-86
2022/08/12 04:21:02;;;;;;;6.38;3.95;;;;;;;;;;5038604;28;20056;-85
2022/08/12 04:23:44;;;;;;;8.25;4.20;;;;;;;;;;5032883;28;20057;-86
2022/08/12 04:31:01;;;;;;;7.25;4.95;;;;;;;;;;5047643;28;20029;-86
2022/08/12 04:33:41;;;;;;;6.00;5.40;;;;;;;;;;5031932;28;20072;-87
2022/08/12 04:36:12;;;;;;;6.13;5.10;;;;;;;;;;5032258;28;20049;-87
2022/08/12 04:39:32;;;;;;;8.43;5.53;;;;;;;;;;5033511;28;20042;-86
2022/08/12 04:42:06;;;;;;;5.68;4.68;;;;;;;;;;5031615;28;20049;-87
2022/08/12 04:44:44;;;;;;;6.45;4.20;;;;;;;;;;5032923;28;20111;-87
2022/08/12 04:47:15;;;;;;;5.93;3.72;;;;;;;;;;5031022;28;20056;-87
2022/08/12 04:50:06;;;;;;;5.43;3.70;;;;;;;;;;5032995;28;20056;-86
2022/08/12 04:52:59;;;;;;;5.38;3.38;;;;;;;;;;5031402;28;20076;-86
2022/08/12 04:55:47;;;;;;;4.03;3.72;;;;;;;;;;5034084;28;20053;-87
2022/08/12 04:58:36;;;;;;;5.30;3.40;;;;;;;;;;5021261;28;20053;-86
2022/08/12 05:01:05;;;;;;;3.88;3.17;;;;;;;;;;5036678;28;20053;-86
2022/08/12 05:03:43;;;;;;;3.58;3.30;;;;;;;;;;5038227;28;20122;-87
2022/08/12 05:06:46;;;;;;;9.93;3.65;;;;;;;;;;5000450;28;20118;-86
2022/08/12 05:09:24;;;;;;;3.75;3.50;;;;;;;;;;4999063;28;20060;-87
2022/08/12 05:12:12;;;;;;;5.50;3.60;;;;;;;;;;5000443;28;20089;-87
2022/08/12 05:14:40;;;;;;;3.92;3.53;;;;;;;;;;4999338;28;20051;-87
2022/08/12 05:17:08;;;;;;;4.22;3.58;;;;;;;;;;4998091;28;20114;-86
2022/08/12 05:19:55;;;;;;;4.45;3.38;;;;;;;;;;4999837;28;20058;-87
2022/08/12 05:22:45;;;;;;;6.72;4.45;;;;;;;;;;4999488;28;20034;-87
2022/08/12 05:25:14;;;;;;;9.15;3.55;;;;;;;;;;5001281;28;20102;-87
2022/08/12 05:27:44;;;;;;;9.65;3.70;;;;;;;;;;5000879;28;20052;-86
2022/08/12 05:30:29;;;;;;;9.00;3.50;;;;;;;;;;5002977;28;20061;-86
2022/08/12 05:33:06;;;;;;;15.02;3.80;;;;;;;;;;5001892;28;20115;-84
2022/08/12 05:38:56;;;;;;;12.75;4.03;;;;;;;;;;4996079;28;20077;-86
2022/08/12 05:41:31;;;;;;;7.97;3.22;;;;;;;;;;4998207;28;20046;-86
2022/08/12 05:44:08;;;;;;;11.02;3.60;;;;;;;;;;4996573;28;20054;-84
2022/08/12 05:47:03;;;;;;;4.65;2.70;;;;;;;;;;5002211;28;20058;-85
2022/08/12 05:49:39;;;;;;;11.02;3.38;;;;;;;;;;5013106;28;20135;-85
2022/08/12 05:52:08;;;;;;;5.03;3.00;;;;;;;;;;4998982;28;20482;-85
2022/08/12 05:54:42;;;;;;;4.85;3.33;;;;;;;;;;4998602;28;20042;-84
2022/08/12 05:57:23;;;;;;;28.48;5.63;;;;;;;;;;5011205;28;20110;-85
2022/08/12 05:59:53;;;;;;;15.85;4.30;;;;;;;;;;4995069;28;20090;-84
2022/08/12 06:02:25;;;;;;;20.67;4.53;;;;;;;;;;4996279;28;20479;-84
2022/08/12 06:04:53;;;;;;;17.27;4.20;;;;;;;;;;4997640;28;20089;-84
2022/08/12 06:07:20;;;;;;;5.55;2.90;;;;;;;;;;4993900;28;20052;-85
2022/08/12 06:10:09;;;;;;;7.70;2.78;;;;;;;;;;4998123;28;20073;-85
2022/08/12 06:13:04;;;;;;;9.77;3.88;;;;;;;;;;5007571;28;20113;-86
2022/08/12 06:15:36;;;;;;;8.65;4.32;;;;;;;;;;4994428;28;20080;-84
2022/08/12 06:18:12;;;;;;;17.88;4.35;;;;;;;;;;4997717;28;20056;-84
2022/08/12 06:20:48;;;;;;;15.88;3.85;;;;;;;;;;4999267;28;20038;-84
2022/08/12 06:23:39;;;;;;;12.85;3.47;;;;;;;;;;5029169;28;20110;-84
2022/08/12 06:26:11;;;;;;;12.98;4.05;;;;;;;;;;5037465;28;20097;-83
2022/08/12 06:28:53;;;;;;;19.35;3.90;;;;;;;;;;5057887;28;20041;-84
2022/08/12 06:31:36;;;;;;;27.67;5.82;;;;;;;;;;5040503;28;20049;-85
2022/08/12 06:34:16;;;;;;;23.50;5.55;;;;;;;;;;5039604;28;20060;-86
2022/08/12 06:37:06;;;;;;;21.70;5.72;;;;;;;;;;5042095;28;20050;-86
2022/08/12 06:39:37;;;;;;;37.30;5.82;;;;;;;;;;5041370;28;20033;-85
2022/08/12 06:42:47;;;;;;;30.05;6.15;;;;;;;;;;5039482;28;20049;-86
2022/08/12 06:45:18;;;;;;;30.50;4.82;;;;;;;;;;5055526;28;20057;-86
2022/08/12 06:47:52;;;;;;;22.20;5.25;;;;;;;;;;5036415;28;20057;-86
2022/08/12 06:50:20;;;;;;;22.20;5.00;;;;;;;;;;5039837;28;20064;-85
2022/08/12 06:52:49;;;;;;;21.90;4.30;;;;;;;;;;5041081;28;20054;-85
2022/08/12 06:55:27;;;;;;;24.42;4.30;;;;;;;;;;5036012;28;20053;-86
2022/08/12 06:58:00;;;;;;;14.35;3.55;;;;;;;;;;5037266;28;20107;-90
2022/08/12 07:00:42;;;;;;;22.90;3.90;;;;;;;;;;5041200;28;20068;-84
2022/08/12 07:03:20;;;;;;;6.75;3.20;;;;;;;;;;5056737;28;20034;-86
2022/08/12 07:05:51;;;;;;;10.25;3.22;;;;;;;;;;5039836;28;20049;-85
2022/08/12 07:08:26;;;;;;;9.80;3.22;;;;;;;;;;5038698;28;20038;-86
2022/08/12 07:10:57;;;;;;;5.25;2.80;;;;;;;;;;5038596;28;20033;-85
2022/08/12 07:13:52;;;;;;;9.13;3.08;;;;;;;;;;5040560;28;20052;-86
2022/08/12 07:17:00;;;;;;;8.13;2.58;;;;;;;;;;5040744;28;20053;-86
2022/08/12 07:19:32;;;;;;;9.27;2.63;;;;;;;;;;5039233;28;20036;-87
2022/08/12 07:22:12;;;;;;;3.03;2.08;;;;;;;;;;5039561;28;20100;-84
2022/08/12 07:24:41;;;;;;;8.35;2.15;;;;;;;;;;5037725;28;20049;-85
2022/08/12 07:27:10;;;;;;;7.53;2.40;;;;;;;;;;5034837;28;20068;-85
2022/08/12 07:29:38;;;;;;;4.97;2.30;;;;;;;;;;5036263;28;20107;-86
2022/08/12 07:32:25;;;;;;;2.17;1.98;;;;;;;;;;5039010;28;20041;-86
2022/08/12 07:34:55;;;;;;;4.40;1.88;;;;;;;;;;5038690;28;20060;-86
2022/08/12 07:37:24;;;;;;;7.05;1.88;;;;;;;;;;5030983;28;20049;-87
2022/08/12 07:39:53;;;;;;;3.55;1.92;;;;;;;;;;5031669;28;20052;-85
2022/08/12 07:42:28;;;;;;;7.97;1.88;;;;;;;;;;5030205;28;20099;-86
2022/08/12 07:44:55;;;;;;;7.20;1.90;;;;;;;;;;5030674;28;20059;-86
2022/08/12 07:47:23;;;;;;;1.95;1.85;;;;;;;;;;5029657;28;20068;-86
2022/08/12 07:49:55;;;;;;;4.97;2.10;;;;;;;;;;5032949;28;20046;-86
2022/08/12 07:52:37;;;;;;;4.50;1.65;;;;;;;;;;5033192;28;20050;-88
2022/08/12 07:55:05;;;;;;;5.07;1.73;;;;;;;;;;5022699;28;20046;-85
2022/08/12 07:57:32;;;;;;;7.35;1.65;;;;;;;;;;5029864;28;20053;-88
2022/08/12 08:00:04;;;;;;;5.50;1.73;;;;;;;;;;5026334;28;20115;-87
2022/08/12 08:02:37;;;;;;;15.65;1.95;;;;;;;;;;5027878;28;20053;-85
2022/08/12 08:05:11;;;;;;;5.43;1.70;;;;;;;;;;5021381;28;20140;-88
2022/08/12 08:07:42;;;;;;;5.00;1.88;;;;;;;;;;5029449;28;20056;-87
2022/08/12 08:10:10;;;;;;;6.97;1.70;;;;;;;;;;5033432;28;20577;-87
2022/08/12 08:12:52;;;;;;;3.97;1.65;;;;;;;;;;5030305;28;20072;-87
2022/08/12 08:15:29;;;;;;;5.72;1.88;;;;;;;;;;5028908;28;20045;-87
2022/08/12 08:18:19;;;;;;;4.25;1.70;;;;;;;;;;5031242;28;20045;-88
2022/08/12 08:20:56;;;;;;;3.72;1.38;;;;;;;;;;5025873;28;20072;-89
2022/08/12 08:26:25;;;;;;;3.83;1.38;;;;;;;;;;5044334;28;20049;-87
2022/08/12 08:28:58;;;;;;;3.92;1.50;;;;;;;;;;5026653;28;20068;-87
2022/08/12 08:31:25;;;;;;;3.08;1.58;;;;;;;;;;5026484;28;20049;-85
2022/08/12 08:33:54;;;;;;;5.10;1.20;;;;;;;;;;5027698;28;20506;-86
2022/08/12 08:36:44;;;;;;;2.30;1.38;;;;;;;;;;5045498;28;20046;-88
2022/08/12 08:39:21;;;;;;;7.35;1.33;;;;;;;;;;5029476;28;20051;-89
2022/08/12 08:45:11;;;;;;;4.18;1.40;;;;;;;;;;5041150;28;20556;-88
2022/08/12 08:47:43;;;;;;;2.70;1.13;;;;;;;;;;5019390;28;20041;-89
2022/08/12 08:50:13;;;;;;;6.68;1.10;;;;;;;;;;5019252;28;20411;-88
2022/08/12 08:52:45;;;;;;;4.75;1.20;;;;;;;;;;5019160;28;20053;-88
2022/08/12 08:55:14;;;;;;;2.83;0.88;;;;;;;;;;5019372;28;20461;-86
2022/08/12 08:57:50;;;;;;;1.55;0.90;;;;;;;;;;5019344;28;20105;-88
2022/08/12 09:00:20;;;;;;;6.07;1.75;;;;;;;;;;5019035;28;20089;-88
2022/08/12 09:02:48;;;;;;;3.72;1.00;;;;;;;;;;5019119;28;20061;-87
2022/08/12 09:05:27;;;;;;;3.55;1.00;;;;;;;;;;5036520;28;20049;-89
2022/08/12 09:08:14;;;;;;;2.22;0.70;;;;;;;;;;5021858;28;20048;-87
2022/08/12 09:10:49;;;;;;;4.82;0.65;;;;;;;;;;5019942;28;20041;-87
2022/08/12 09:13:27;;;;;;;2.78;1.25;;;;;;;;;;5036568;28;20056;-89
2022/08/12 09:16:16;;;;;;;4.80;1.08;;;;;;;;;;5021586;28;20050;-88
2022/08/12 09:18:47;;;;;;;4.78;0.77;;;;;;;;;;5019381;28;20542;-88
2022/08/12 09:21:35;;;;;;;2.97;0.60;;;;;;;;;;5021964;28;20566;-88
2022/08/12 09:24:21;;;;;;;2.47;0.82;;;;;;;;;;5021061;28;20521;-88
2022/08/12 09:26:53;;;;;;;5.28;0.73;;;;;;;;;;5019200;28;20045;-89
2022/08/12 09:29:20;;;;;;;3.28;0.73;;;;;;;;;;5036314;28;20499;-86
2022/08/12 09:32:08;;;;;;;4.13;0.85;;;;;;;;;;5024828;28;20144;-88
2022/08/12 09:34:55;;;;;;;1.75;0.43;;;;;;;;;;5021526;28;20406;-89
2022/08/12 09:37:25;;;;;;;6.38;0.85;;;;;;;;;;5018535;28;20510;-88
2022/08/12 09:39:53;;;;;;;4.55;0.60;;;;;;;;;;5018454;28;20099;-89
2022/08/12 09:45:50;;;;;;;;;;;;;;;;;;5036557;28;20060;-89
2022/08/12 09:48:37;;;;;;;4.97;0.30;;;;;;;;;;5021483;28;19964;-87
2022/08/12 09:51:11;;;;;;;2.67;0.47;;;;;;;;;;5018677;28;20054;-88
2022/08/12 09:53:49;;;;;;;1.95;0.30;;;;;;;;;;5019634;28;20049;-88
2022/08/12 09:56:38;;;;;;;1.83;0.30;;;;;;;;;;5020776;28;20053;-90
2022/08/12 09:59:25;;;;;;;6.95;0.40;;;;;;;;;;5020677;28;20513;-89
2022/08/12 10:02:12;;;;;;;3.50;0.60;;;;;;;;;;5020936;28;20128;-89
2022/08/12 10:04:59;;;;;;;1.48;0.50;;;;;;;;;;5021089;28;20124;-88
2022/08/12 10:07:29;;;;;;;4.38;0.50;;;;;;;;;;5017762;28;20041;-88
2022/08/12 10:10:07;;;;;;;2.75;0.55;;;;;;;;;;5020252;28;20041;-88
2022/08/12 10:15:43;;;;;;;1.10;0.50;;;;;;;;;;5035539;28;20053;-89
2022/08/12 10:18:31;;;;;;;0.82;0.30;;;;;;;;;;5020607;28;20088;-87
2022/08/12 10:21:04;;;;;;;2.30;0.32;;;;;;;;;;5017969;28;20061;-89
2022/08/12 10:23:33;;;;;;;8.75;0.45;;;;;;;;;;5017974;28;20132;-89
2022/08/12 10:32:15;;;;;;;3.55;0.68;;;;;;;;;;5035588;28;20140;-90
2022/08/12 10:34:52;;;;;;;3.15;0.50;;;;;;;;;;5018148;28;20053;-89
2022/08/12 10:37:23;;;;;;;8.10;0.50;;;;;;;;;;5017937;28;20095;-89
2022/08/12 10:40:10;;;;;;;3.30;0.57;;;;;;;;;;5020460;28;20045;-86
2022/08/12 10:45:31;;;;;;;1.63;0.45;;;;;;;;;;5035080;28;20486;-90
2022/08/12 10:48:04;;;;;;;2.72;0.52;;;;;;;;;;5019126;28;20215;-88
2022/08/12 10:50:51;;;;;;;4.75;0.88;;;;;;;;;;5022918;28;20085;-88
2022/08/12 10:53:29;;;;;;;2.00;0.50;;;;;;;;;;5018385;28;20417;-91
2022/08/12 10:56:16;;;;;;;1.95;0.52;;;;;;;;;;5019028;28;20053;-88
2022/08/12 10:58:44;;;;;;;5.43;0.75;;;;;;;;;;5016944;28;20107;-88
2022/08/12 11:01:14;;;;;;;1.50;0.70;;;;;;;;;;5034708;28;20419;-87
2022/08/12 11:04:02;;;;;;;2.28;0.55;;;;;;;;;;5019130;28;20042;-89
2022/08/12 11:06:49;;;;;;;2.50;0.63;;;;;;;;;;5034418;28;20137;-87
2022/08/12 11:09:37;;;;;;;0.30;0.30;;;;;;;;;;5020047;28;20558;-86
2022/08/12 11:12:24;;;;;;;0.43;0.35;;;;;;;;;;5034402;28;20111;-89
2022/08/12 11:15:11;;;;;;;1.85;0.65;;;;;;;;;;5018984;28;20050;-88
2022/08/12 11:17:48;;;;;;;0.43;0.40;;;;;;;;;;5033622;28;20057;-89
2022/08/12 11:20:20;;;;;;;3.33;0.45;;;;;;;;;;5017709;28;20054;-86
2022/08/12 11:23:03;;;;;;;0.52;0.47;;;;;;;;;;5017387;28;20049;-89
2022/08/12 11:25:50;;;;;;;2.72;0.50;;;;;;;;;;5019587;28;20124;-88
2022/08/12 11:28:26;;;;;;;3.03;0.55;;;;;;;;;;5017497;28;20052;-91
2022/08/12 11:31:04;;;;;;;2.15;0.63;;;;;;;;;;5018149;28;20060;-90
2022/08/12 11:33:31;;;;;;;3.70;0.50;;;;;;;;;;5017323;28;20049;-90
2022/08/12 11:36:19;;;;;;;3.13;0.47;;;;;;;;;;5020689;28;20144;-89
2022/08/12 11:38:48;;;;;;;0.88;0.38;;;;;;;;;;5033935;28;20061;-88
2022/08/12 11:41:18;;;;;;;1.90;0.50;;;;;;;;;;5017123;28;20073;-89
2022/08/12 11:43:57;;;;;;;5.20;0.70;;;;;;;;;;5017741;28;20057;-85
2022/08/12 11:46:25;;;;;;;3.53;0.50;;;;;;;;;;5016534;28;20049;-85
2022/08/12 11:48:52;;;;;;;3.92;0.50;;;;;;;;;;5016509;28;20092;-88
2022/08/12 11:51:19;;;;;;;1.63;0.40;;;;;;;;;;5016789;28;20077;-86
2022/08/12 11:53:47;;;;;;;0.68;0.30;;;;;;;;;;5016221;28;20049;-85
2022/08/12 11:56:25;;;;;;;2.38;0.50;;;;;;;;;;5017671;28;20069;-89
2022/08/12 11:59:05;;;;;;;0.30;0.30;;;;;;;;;;5019359;28;20049;-87
2022/08/12 12:01:52;;;;;;;3.20;0.35;;;;;;;;;;5022663;28;20064;-87
2022/08/12 12:04:30;;;;;;;3.80;0.75;;;;;;;;;;5018018;28;20084;-90
2022/08/12 12:06:57;;;;;;;4.22;0.38;;;;;;;;;;5018686;28;20110;-89
2022/08/12 12:09:37;;;;;;;2.00;0.35;;;;;;;;;;5018693;28;20046;-85
2022/08/12 12:12:19;;;;;;;2.03;0.20;;;;;;;;;;5018303;28;20049;-90
2022/08/12 12:14:48;;;;;;;2.40;0.40;;;;;;;;;;5016418;28;20077;-89
2022/08/12 12:17:22;;;;;;;2.20;0.30;;;;;;;;;;5016898;28;20049;-91
2022/08/12 12:19:49;;;;;;;3.58;0.38;;;;;;;;;;5016658;28;20045;-84
2022/08/12 12:22:16;;;;;;;1.95;0.40;;;;;;;;;;5018245;28;20072;-90
2022/08/12 12:24:56;;;;;;;5.15;0.70;;;;;;;;;;5035155;28;20536;-87
2022/08/12 12:27:24;;;;;;;8.80;0.70;;;;;;;;;;5017465;28;20057;-87
2022/08/12 12:30:12;;;;;;;1.63;0.20;;;;;;;;;;5019718;28;20128;-88
2022/08/12 12:32:56;;;;;;;1.15;0.30;;;;;;;;;;5034739;28;20081;-91
2022/08/12 12:35:23;;;;;;;2.63;0.28;;;;;;;;;;5018329;28;20049;-86
2022/08/12 12:38:11;;;;;;;3.65;0.45;;;;;;;;;;5021614;28;20136;-87
2022/08/12 12:40:43;;;;;;;1.85;0.43;;;;;;;;;;5035349;28;20057;-88
2022/08/12 12:43:10;;;;;;;5.68;0.77;;;;;;;;;;5017992;28;20115;-86
2022/08/12 12:45:40;;;;;;;1.83;0.50;;;;;;;;;;5017750;28;20124;-90
2022/08/12 12:48:13;;;;;;;2.63;0.22;;;;;;;;;;5034798;28;20049;-90
2022/08/12 12:50:42;;;;;;;6.88;0.70;;;;;;;;;;5019454;28;20132;-89
2022/08/12 12:53:20;;;;;;;1.40;0.43;;;;;;;;;;5018086;28;20140;-90
2022/08/12 12:56:11;;;;;;;4.97;0.30;;;;;;;;;;5019677;28;20132;-89
2022/08/12 12:58:39;;;;;;;3.65;0.45;;;;;;;;;;5017952;28;20053;-87
2022/08/12 13:01:12;;;;;;;5.20;0.38;;;;;;;;;;5017215;28;20136;-90
2022/08/12 13:03:57;;;;;;;1.45;0.32;;;;;;;;;;5019951;28;20049;-86
2022/08/12 13:06:29;;;;;;;3.35;0.68;;;;;;;;;;5016454;28;20045;-89
2022/08/12 13:08:58;;;;;;;3.22;0.45;;;;;;;;;;5017442;28;20105;-84
2022/08/12 13:11:33;;;;;;;2.58;0.40;;;;;;;;;;5016473;28;20041;-86
2022/08/12 13:14:11;;;;;;;6.90;0.40;;;;;;;;;;5017935;28;20521;-88
2022/08/12 13:16:59;;;;;;;7.25;0.60;;;;;;;;;;5022027;28;20503;-88
2022/08/12 13:19:35;;;;;;;2.92;0.43;;;;;;;;;;5022368;28;20053;-91
2022/08/12 13:22:16;;;;;;;;;;;;;;;;;;5023447;28;20049;-91
2022/08/12 13:24:46;;;;;;;7.00;0.68;;;;;;;;;;5023044;28;19921;-88
2022/08/12 13:27:22;;;;;;;3.17;0.50;;;;;;;;;;5023389;28;20144;-88
2022/08/12 13:30:02;;;;;;;5.63;0.50;;;;;;;;;;5022176;28;20122;-86
2022/08/12 13:32:33;;;;;;;4.20;0.43;;;;;;;;;;5021552;28;20049;-89
2022/08/12 13:35:01;;;;;;;2.45;0.65;;;;;;;;;;5020961;28;20046;-89
2022/08/12 13:37:54;;;;;;;0.40;0.40;;;;;;;;;;5037828;28;20094;-85
2022/08/12 13:40:29;;;;;;;3.03;0.63;;;;;;;;;;5020968;28;20609;-87
2022/08/12 13:42:57;;;;;;;2.40;0.47;;;;;;;;;;5021007;28;20056;-89
2022/08/12 13:45:25;;;;;;;1.58;0.20;;;;;;;;;;5021288;28;20057;-90
2022/08/12 13:48:03;;;;;;;2.63;0.50;;;;;;;;;;5020070;28;20041;-90
2022/08/12 13:50:35;;;;;;;2.10;0.32;;;;;;;;;;5020088;28;20119;-90
2022/08/12 13:53:04;;;;;;;4.65;0.45;;;;;;;;;;5020939;28;20105;-87
2022/08/12 13:55:51;;;;;;;6.75;0.60;;;;;;;;;;5022168;28;20056;-88
2022/08/12 13:58:28;;;;;;;2.35;0.35;;;;;;;;;;5019866;28;20112;-88
2022/08/12 14:00:58;;;;;;;0.65;0.35;;;;;;;;;;5018818;28;20076;-86
2022/08/12 14:03:25;;;;;;;4.75;0.80;;;;;;;;;;5018884;28;20084;-87
2022/08/12 14:06:16;;;;;;;2.67;0.60;;;;;;;;;;5022013;28;20056;-91
2022/08/12 14:08:47;;;;;;;3.00;0.30;;;;;;;;;;5020489;28;20056;-87
2022/08/12 14:11:17;;;;;;;0.98;0.40;;;;;;;;;;5021787;28;20049;-87
2022/08/12 14:13:44;;;;;;;4.00;0.50;;;;;;;;;;5020194;28;20355;-88
2022/08/12 14:16:36;;;;;;;3.28;0.52;;;;;;;;;;5022292;28;20060;-88
2022/08/12 14:19:17;;;;;;;4.38;0.50;;;;;;;;;;5022100;28;20136;-89
2022/08/12 14:21:58;;;;;;;1.65;0.47;;;;;;;;;;5022757;28;20107;-88
2022/08/12 14:24:35;;;;;;;1.70;0.43;;;;;;;;;;5023719;28;20037;-89
2022/08/12 14:27:11;;;;;;;3.40;0.73;;;;;;;;;;5023399;28;20069;-88
2022/08/12 14:29:44;;;;;;;3.72;0.47;;;;;;;;;;5020843;28;20072;-90
2022/08/12 14:32:33;;;;;;;4.95;0.50;;;;;;;;;;5041850;28;20025;-83
2022/08/12 14:35:02;;;;;;;2.40;0.50;;;;;;;;;;5024895;28;20136;-89
2022/08/12 14:37:29;;;;;;;0.30;0.30;;;;;;;;;;5019649;28;20462;-89
2022/08/12 14:40:17;;;;;;;3.42;0.55;;;;;;;;;;5025823;28;20046;-89
2022/08/12 14:42:54;;;;;;;0.40;0.40;;;;;;;;;;5022560;28;20085;-87
2022/08/12 14:45:23;;;;;;;4.78;0.80;;;;;;;;;;5021726;28;20052;-88
2022/08/12 14:48:13;;;;;;;1.10;0.40;;;;;;;;;;5026290;28;20047;-88
2022/08/12 14:50:55;;;;;;;6.05;0.52;;;;;;;;;;5025365;28;20053;-88
2022/08/12 14:53:50;;;;;;;1.80;0.40;;;;;;;;;;5026321;28;20049;-89
2022/08/12 14:56:53;;;;;;;3.72;0.40;;;;;;;;;;5025854;28;20491;-87
2022/08/12 15:02:40;;;;;;;5.45;0.70;;;;;;;;;;5044093;28;20053;-87
2022/08/12 15:05:20;;;;;;;2.28;0.65;;;;;;;;;;5024044;28;20041;-89
2022/08/12 15:08:23;;;;;;;0.90;0.40;;;;;;;;;;5034919;28;20054;-88
2022/08/12 15:10:54;;;;;;;0.65;0.40;;;;;;;;;;5025815;28;20049;-86
2022/08/12 15:13:24;;;;;;;3.67;0.60;;;;;;;;;;5021967;28;20113;-85
2022/08/12 15:15:53;;;;;;;5.15;0.80;;;;;;;;;;5021073;28;20541;-83
2022/08/12 15:18:21;;;;;;;0.63;0.52;;;;;;;;;;5024442;28;20049;-89
2022/08/12 15:20:54;;;;;;;2.92;0.60;;;;;;;;;;5020756;28;20050;-89
2022/08/12 15:23:36;;;;;;;2.50;0.40;;;;;;;;;;5018348;28;20049;-89
2022/08/12 15:26:21;;;;;;;4.03;0.57;;;;;;;;;;5020674;28;20053;-88
2022/08/12 15:28:54;;;;;;;3.10;0.50;;;;;;;;;;5018921;28;20053;-88
2022/08/12 15:31:23;;;;;;;4.25;0.80;;;;;;;;;;5017877;28;20050;-88
2022/08/12 15:33:54;;;;;;;1.58;0.50;;;;;;;;;;5019892;28;20464;-88
2022/08/12 15:36:27;;;;;;;2.58;0.50;;;;;;;;;;5019306;28;20049;-89
2022/08/12 15:39:14;;;;;;;1.02;0.43;;;;;;;;;;5022167;28;20049;-89
2022/08/12 15:41:47;;;;;;;3.15;0.63;;;;;;;;;;5017290;28;20053;-89
2022/08/12 15:44:22;;;;;;;2.85;0.63;;;;;;;;;;5019267;28;20041;-88
2022/08/12 15:47:09;;;;;;;4.65;1.02;;;;;;;;;;5021321;28;20050;-88
2022/08/12 15:49:40;;;;;;;2.60;1.00;;;;;;;;;;5035977;28;20474;-89
2022/08/12 15:52:28;;;;;;;1.00;0.60;;;;;;;;;;5021696;28;20046;-89
2022/08/12 15:54:59;;;;;;;2.30;0.60;;;;;;;;;;5018175;28;20419;-88
2022/08/12 15:57:35;;;;;;;7.32;1.05;;;;;;;;;;5018637;28;20072;-89
2022/08/12 16:00:06;;;;;;;1.65;0.75;;;;;;;;;;5018294;28;20061;-91
2022/08/12 16:02:49;;;;;;;3.83;0.90;;;;;;;;;;5020675;28;20053;-89
2022/08/12 16:05:21;;;;;;;7.43;0.70;;;;;;;;;;5019910;28;20485;-88
2022/08/12 16:08:09;;;;;;;5.57;0.52;;;;;;;;;;5023686;28;20477;-89
2022/08/12 16:10:46;;;;;;;5.88;0.50;;;;;;;;;;5005330;28;20056;-89
2022/08/12 16:13:17;;;;;;;0.85;0.60;;;;;;;;;;5016966;28;20049;-89
2022/08/12 16:16:01;;;;;;;1.15;0.60;;;;;;;;;;5018738;28;20080;-88
2022/08/12 16:18:34;;;;;;;4.07;0.98;;;;;;;;;;5016965;28;20049;-90
2022/08/12 16:21:06;;;;;;;1.08;0.60;;;;;;;;;;5016488;28;20049;-89
2022/08/12 16:24:00;;;;;;;2.97;0.70;;;;;;;;;;5034171;28;20041;-89
2022/08/12 16:26:33;;;;;;;2.25;0.40;;;;;;;;;;5012465;28;20459;-89
2022/08/12 16:29:04;;;;;;;0.90;0.60;;;;;;;;;;5012471;28;20046;-85
2022/08/12 16:31:43;;;;;;;1.38;0.90;;;;;;;;;;5012085;28;20081;-88
2022/08/12 16:34:14;;;;;;;2.72;0.60;;;;;;;;;;5012277;28;20056;-89
2022/08/12 16:37:12;;;;;;;0.50;0.50;;;;;;;;;;5013954;28;20085;-87
2022/08/12 16:39:40;;;;;;;4.50;0.63;;;;;;;;;;5012522;28;20057;-89
2022/08/12 16:42:31;;;;;;;3.05;0.75;;;;;;;;;;5012802;28;20136;-87
2022/08/12 16:45:00;;;;;;;4.38;0.60;;;;;;;;;;5012275;28;20061;-89
2022/08/12 16:47:30;;;;;;;0.30;0.30;;;;;;;;;;5012119;28;20407;-89
2022/08/12 16:50:25;;;;;;;0.68;0.60;;;;;;;;;;5011976;28;20046;-87
2022/08/12 16:52:59;;;;;;;2.05;0.82;;;;;;;;;;5015856;28;20423;-88
2022/08/12 16:55:33;;;;;;;6.43;0.82;;;;;;;;;;5015672;28;20427;-88
2022/08/12 16:58:11;;;;;;;0.85;0.70;;;;;;;;;;5015561;28;20049;-87
2022/08/12 17:00:57;;;;;;;3.05;0.60;;;;;;;;;;5016171;28;20499;-89
2022/08/12 17:03:31;;;;;;;3.30;0.65;;;;;;;;;;5016349;28;20061;-88
2022/08/12 17:06:02;;;;;;;2.83;0.70;;;;;;;;;;5015708;28;20042;-88
2022/08/12 17:08:29;;;;;;;4.25;0.80;;;;;;;;;;5016080;28;20050;-89
2022/08/12 17:10:57;;;;;;;0.63;0.63;;;;;;;;;;5015910;28;20104;-88
2022/08/12 17:13:25;;;;;;;1.60;0.70;;;;;;;;;;5015679;28;20053;-88
2022/08/12 17:15:52;;;;;;;1.55;0.70;;;;;;;;;;5015850;28;20061;-89
2022/08/12 17:18:32;;;;;;;2.05;0.90;;;;;;;;;;5015824;28;20046;-89
2022/08/12 17:21:14;;;;;;;1.58;0.70;;;;;;;;;;5015314;28;20520;-88
2022/08/12 17:23:49;;;;;;;1.75;0.70;;;;;;;;;;5017833;28;20054;-87
2022/08/12 17:26:21;;;;;;;4.68;1.00;;;;;;;;;;5018884;28;20050;-87
2022/08/12 17:28:54;;;;;;;1.02;0.80;;;;;;;;;;5036129;28;20133;-88
2022/08/12 17:31:22;;;;;;;0.63;0.60;;;;;;;;;;5018260;28;20459;-87
2022/08/12 17:35:25;;;;;;;1.23;0.75;;;;;;;;;;5021448;28;20091;-88
2022/08/12 17:37:00;;;;;;;4.47;0.88;;;;;;;;;;5036116;28;20473;-88
2022/08/12 17:39:31;;;;;;;1.85;0.90;;;;;;;;;;5019722;28;20422;-87
2022/08/12 17:42:18;;;;;;;3.70;1.20;;;;;;;;;;5021228;28;20504;-87
2022/08/12 17:45:02;;;;;;;3.13;0.77;;;;;;;;;;5020435;28;20171;-88
2022/08/12 17:47:47;;;;;;;3.17;1.02;;;;;;;;;;5021552;28;20052;-88